createdAt,value
2022-08-18T00:04:36.481Z,16.37
2022-08-18T00:09:42.452Z,16.34
2022-08-18T00:14:46.992Z,16.26
2022-08-18T00:19:52.434Z,16.26
2022-08-18T00:24:57.794Z,16.38
2022-08-18T00:30:04.174Z,16.28
2022-08-18T00:35:13.734Z,16.25
2022-08-18T00:40:20.852Z,16.19
2022-08-18T00:45:27.525Z,16.27
2022-08-18T00:50:36.234Z,16.28
2022-08-18T00:55:41.815Z,16.23
2022-08-18T01:00:58.280Z,16.18
2022-08-18T01:06:08.812Z,16.10
2022-08-18T01:11:12.791Z,16.20
2022-08-18T01:16:34.618Z,16.06
2022-08-18T01:21:53.916Z,15.95
2022-08-18T01:26:59.549Z,15.84
2022-08-18T01:32:03.917Z,15.85
2022-08-18T01:37:07.899Z,15.73
2022-08-18T01:42:14.988Z,15.67
2022-08-18T01:47:20.087Z,15.67
2022-08-18T01:52:24.312Z,15.63
2022-08-18T01:57:32.363Z,15.63
2022-08-18T02:02:36.446Z,15.52
2022-08-18T02:07:40.407Z,15.54
2022-08-18T02:12:48.162Z,15.56
2022-08-18T02:17:52.358Z,15.41
2022-08-18T02:22:58.693Z,15.32
2022-08-18T02:28:04.707Z,15.49
2022-08-18T02:33:10.804Z,15.38
2022-08-18T02:38:17.478Z,15.34
2022-08-18T02:43:23.013Z,15.26
2022-08-18T02:48:30.346Z,15.23
2022-08-18T02:53:34.308Z,15.16
2022-08-18T02:58:39.779Z,15.20
2022-08-18T03:03:43.998Z,15.11
2022-08-18T03:08:50.368Z,14.99
2022-08-18T03:13:57.208Z,14.88
2022-08-18T03:19:01.963Z,14.89
2022-08-18T03:24:09.299Z,14.87
2022-08-18T03:29:16.285Z,14.89
2022-08-18T03:34:21.874Z,14.73
2022-08-18T03:39:27.804Z,14.74
2022-08-18T03:44:37.571Z,14.73
2022-08-18T03:49:41.973Z,14.78
2022-08-18T03:54:46.714Z,14.94
2022-08-18T03:59:52.478Z,14.99
2022-08-18T04:04:56.620Z,14.96
2022-08-18T04:10:00.839Z,15.24
2022-08-18T04:15:07.042Z,15.37
2022-08-18T04:20:12.963Z,15.71
2022-08-18T04:25:17.999Z,16.19
2022-08-18T04:30:23.761Z,16.31
2022-08-18T04:35:29.287Z,16.49
2022-08-18T04:40:34.028Z,16.96
2022-08-18T04:45:40.560Z,17.25
2022-08-18T04:50:45.120Z,17.82
2022-08-18T04:55:49.997Z,18.10
2022-08-18T05:01:02.526Z,18.61
2022-08-18T05:06:07.707Z,18.77
2022-08-18T05:11:11.725Z,19.04
2022-08-18T05:16:27.238Z,19.24
2022-08-18T05:21:33.825Z,19.62
2022-08-18T05:26:41.792Z,19.89
2022-08-18T05:31:47.614Z,19.91
2022-08-18T05:37:05.315Z,19.84
2022-08-18T05:42:14.416Z,20.19
2022-08-18T05:47:25.028Z,20.46
2022-08-18T05:52:36.557Z,20.78
2022-08-18T05:57:46.568Z,21.49
2022-08-18T06:02:57.926Z,21.89
2022-08-18T06:08:05.222Z,22.13
2022-08-18T06:13:11.336Z,22.59
2022-08-18T06:18:30.060Z,22.93
2022-08-18T06:23:41.751Z,23.21
2022-08-18T06:28:55.064Z,23.68
2022-08-18T06:34:12.470Z,24.03
2022-08-18T06:39:24.178Z,24.41
2022-08-18T06:44:35.161Z,24.33
2022-08-18T06:49:46.736Z,24.88
2022-08-18T06:54:51.831Z,25.40
2022-08-18T07:00:01.620Z,25.86
2022-08-18T07:05:09.255Z,26.36
2022-08-18T07:10:34.113Z,26.64
2022-08-18T07:15:38.161Z,27.24
2022-08-18T07:20:53.859Z,26.89
2022-08-18T07:26:11.943Z,27.00
2022-08-18T07:31:27.441Z,27.73
2022-08-18T07:36:37.387Z,27.63
2022-08-18T07:41:44.664Z,28.00
2022-08-18T07:46:58.776Z,28.06
2022-08-18T07:52:36.473Z,28.31
2022-08-18T07:57:43.714Z,29.23
2022-08-18T08:02:58.963Z,29.35
2022-08-18T08:08:14.535Z,29.84
2022-08-18T08:13:51.745Z,30.15
2022-08-18T08:19:12.364Z,30.33
2022-08-18T08:24:22.310Z,29.67
2022-08-18T08:29:42.481Z,30.83
2022-08-18T08:34:52.981Z,31.31
2022-08-18T08:40:03.976Z,31.51
2022-08-18T08:45:13.047Z,31.20
2022-08-18T08:50:21.032Z,31.37
2022-08-18T08:55:30.769Z,31.53
2022-08-18T09:00:35.253Z,31.18
2022-08-18T09:05:45.039Z,31.22
2022-08-18T09:11:15.477Z,31.66
2022-08-18T09:16:35.326Z,30.07
2022-08-18T09:21:45.780Z,32.17
2022-08-18T09:26:55.702Z,32.85
2022-08-18T09:32:49.328Z,32.96
2022-08-18T09:38:12.890Z,31.91
2022-08-18T09:43:31.354Z,33.08
2022-08-18T09:48:43.401Z,33.50
2022-08-18T09:54:21.644Z,34.10
2022-08-18T10:00:19.890Z,33.67
2022-08-18T10:05:32.756Z,34.63
2022-08-18T10:11:01.271Z,34.70
2022-08-18T10:16:23.521Z,34.33
2022-08-18T10:21:31.445Z,34.09
2022-08-18T10:27:10.052Z,33.93
2022-08-18T10:32:38.098Z,34.92
2022-08-18T10:37:46.330Z,33.99
2022-08-18T10:43:10.698Z,35.13
2022-08-18T10:48:28.875Z,35.10
2022-08-18T10:59:17.201Z,35.21
2022-08-18T11:04:34.598Z,35.05
2022-08-18T11:15:22.895Z,35.08
2022-08-18T11:20:33.114Z,34.61
2022-08-18T11:25:40.331Z,35.90
2022-08-18T11:30:47.130Z,36.10
2022-08-18T11:35:57.904Z,35.50
2022-08-18T11:41:18.847Z,35.21
2022-08-18T11:46:30.556Z,36.24
2022-08-18T11:51:37.394Z,35.04
2022-08-18T11:56:41.431Z,34.91
2022-08-18T12:01:51.791Z,35.61
2022-08-18T12:07:04.412Z,35.88
2022-08-18T12:17:44.723Z,35.80
2022-08-18T12:22:58.824Z,35.50
2022-08-18T12:28:02.984Z,35.74
2022-08-18T12:33:10.343Z,35.51
2022-08-18T12:38:19.003Z,35.31
2022-08-18T12:43:22.998Z,34.79
2022-08-18T12:48:28.736Z,34.75
2022-08-18T12:53:38.237Z,34.09
2022-08-18T12:59:01.212Z,34.21
2022-08-18T13:04:13.240Z,34.19
2022-08-18T13:09:35.160Z,33.85
2022-08-18T13:14:43.499Z,33.90
2022-08-18T13:19:47.756Z,33.67
2022-08-18T13:24:55.503Z,33.66
2022-08-18T13:30:00.836Z,33.29
2022-08-18T13:35:13.349Z,33.29
2022-08-18T13:40:19.260Z,33.42
2022-08-18T13:45:25.684Z,32.34
2022-08-18T13:50:30.155Z,32.41
2022-08-18T13:55:36.102Z,32.23
2022-08-18T14:00:40.527Z,32.39
2022-08-18T14:05:54.340Z,32.02
2022-08-18T14:11:05.036Z,31.22
2022-08-18T14:16:10.427Z,30.44
2022-08-18T14:21:31.926Z,30.93
2022-08-18T14:26:51.255Z,31.00
2022-08-18T14:31:55.467Z,30.95
2022-08-18T14:36:59.931Z,30.98
2022-08-18T14:42:05.824Z,30.73
2022-08-18T14:47:10.553Z,30.69
2022-08-18T14:52:15.553Z,30.53
2022-08-18T14:57:22.472Z,30.70
2022-08-18T15:02:30.674Z,30.27
2022-08-18T15:07:34.738Z,30.09
2022-08-18T15:12:40.837Z,30.20
2022-08-18T15:17:45.184Z,29.91
2022-08-18T15:23:12.388Z,29.99
2022-08-18T15:28:20.596Z,30.04
2022-08-18T15:33:30.050Z,29.64
2022-08-18T15:38:36.406Z,29.47
2022-08-18T15:43:46.310Z,29.32
2022-08-18T15:48:52.663Z,29.01
2022-08-18T15:53:57.100Z,29.02
2022-08-18T15:59:07.544Z,28.83
2022-08-18T16:04:11.656Z,28.83
2022-08-18T16:09:16.739Z,28.32
2022-08-18T16:14:22.371Z,28.08
2022-08-18T16:19:26.512Z,27.54
2022-08-18T16:24:35.907Z,26.94
2022-08-18T16:29:41.379Z,26.42
2022-08-18T16:34:47.536Z,26.05
2022-08-18T16:39:51.584Z,25.83
2022-08-18T16:44:56.975Z,25.63
2022-08-18T16:50:01.185Z,25.33
2022-08-18T16:55:07.380Z,25.00
2022-08-18T17:00:32.884Z,24.80
2022-08-18T17:05:36.940Z,24.75
2022-08-18T17:10:41.547Z,24.64
2022-08-18T17:15:50.662Z,24.52
2022-08-18T17:20:55.520Z,24.19
2022-08-18T17:26:00.217Z,24.01
2022-08-18T17:31:08.466Z,23.88
2022-08-18T17:36:21.181Z,23.73
2022-08-18T17:41:26.611Z,23.42
2022-08-18T17:46:39.088Z,23.45
2022-08-18T17:51:48.989Z,23.24
2022-08-18T17:57:04.456Z,23.15
2022-08-18T18:02:29.276Z,23.07
2022-08-18T18:07:39.579Z,22.81
2022-08-18T18:12:44.884Z,22.71
2022-08-18T18:17:50.395Z,22.63
2022-08-18T18:22:54.562Z,22.49
2022-08-18T18:27:58.555Z,22.41
2022-08-18T18:33:13.997Z,22.20
2022-08-18T18:38:26.289Z,22.37
2022-08-18T18:43:38.469Z,22.24
2022-08-18T18:48:52.154Z,22.40
2022-08-18T18:54:06.309Z,22.32
2022-08-18T18:59:22.831Z,22.26
2022-08-18T19:04:34.014Z,22.10
2022-08-18T19:09:48.489Z,21.99
2022-08-18T19:15:00.214Z,21.91
2022-08-18T19:20:12.838Z,21.80
2022-08-18T19:25:22.422Z,21.79
2022-08-18T19:30:26.556Z,21.50
2022-08-18T19:35:40.891Z,21.50
2022-08-18T19:40:50.630Z,21.45
2022-08-18T19:46:01.468Z,21.53
2022-08-18T19:51:10.414Z,21.52
2022-08-18T19:56:43.389Z,21.41
2022-08-18T20:02:05.139Z,21.32
2022-08-18T20:07:41.476Z,21.49
2022-08-18T20:13:07.649Z,21.58
2022-08-18T20:18:22.675Z,21.49
2022-08-18T20:23:37.692Z,21.30
2022-08-18T20:28:42.183Z,21.13
2022-08-18T20:34:04.021Z,20.92
2022-08-18T20:39:43.654Z,21.03
2022-08-18T20:44:59.010Z,21.05
2022-08-18T20:50:36.261Z,21.01
2022-08-18T20:55:49.566Z,21.02
2022-08-18T21:00:58.812Z,21.01
2022-08-18T21:06:03.020Z,20.84
2022-08-18T21:11:27.147Z,20.80
2022-08-18T21:16:39.456Z,21.07
2022-08-18T21:21:48.889Z,21.16
2022-08-18T21:26:57.460Z,21.00
2022-08-18T21:32:12.090Z,20.51
2022-08-18T21:37:18.496Z,20.11
2022-08-18T21:42:27.980Z,19.88
2022-08-18T21:47:34.649Z,19.59
2022-08-18T21:52:41.365Z,19.51
2022-08-18T21:58:00.952Z,19.41
2022-08-18T22:03:21.187Z,19.39
2022-08-18T22:08:27.528Z,19.84
2022-08-18T22:13:59.711Z,19.83
2022-08-18T22:19:24.106Z,19.73
2022-08-18T22:24:38.215Z,19.90
2022-08-18T22:29:51.342Z,19.61
2022-08-18T22:34:55.529Z,19.17
2022-08-18T22:40:05.193Z,18.99
2022-08-18T22:45:13.647Z,18.92
2022-08-18T22:50:17.709Z,18.91
2022-08-18T22:55:24.206Z,18.87
2022-08-18T23:00:29.800Z,18.95
2022-08-18T23:05:33.816Z,19.04
2022-08-18T23:10:37.873Z,18.72
2022-08-18T23:15:54.951Z,18.65
2022-08-18T23:21:34.772Z,18.56
2022-08-18T23:26:40.492Z,18.41
2022-08-18T23:31:46.230Z,18.39
2022-08-18T23:36:55.538Z,18.25
2022-08-18T23:41:59.855Z,18.10
2022-08-18T23:47:06.119Z,18.13
2022-08-18T23:52:10.287Z,18.01
2022-08-18T23:57:14.250Z,18.02
